Date,TemperatureHighF,TemperatureAvgF,TemperatureLowF,DewpointHighF,DewpointAvgF,DewpointLowF,HumidityHigh,HumidityAvg,HumidityLow,PressureMaxIn,PressureMinIn,WindSpeedMaxMPH,WindSpeedAvgMPH,GustSpeedMaxMPH,PrecipitationSumIn
2013-1-1,23,11,-7,15,4,-11,84,75,66,30.20,30.02,17,5,25,0.00
2013-1-2,18,16,13,11,9,7,79,74,66,30.22,30.02,8,3,18,0.00
2013-1-4,32,29,28,25,19,-100,85,74,65,30.09,0.00,15,-26,25,0.00
2013-1-5,32,25,18,22,19,12,88,78,65,30.29,29.95,15,3,18,0.00
2013-1-6,26,22,14,23,17,6,92,80,63,30.34,29.89,7,2,12,0.00
2013-1-7,38,28,13,31,21,6,88,77,67,30.35,29.93,19,7,25,0.02
2013-1-8,39,34,28,32,30,25,92,84,68,30.20,29.97,13,3,17,0.02
2013-1-9,38,35,32,33,30,26,91,81,71,30.39,29.83,19,8,29,0.01
2013-1-10,38,33,26,33,28,22,90,81,65,30.61,30.29,10,3,18,0.01
2013-1-11,39,36,34,38,35,32,97,94,86,30.28,29.74,12,3,16,0.60
2013-1-12,42,18,-90,41,2,-100,97,73,79,30.03,29.71,25,5,28,0.01
2013-1-13,34,32,28,32,28,24,93,88,84,30.02,29.90,7,3,11,0.01
2013-1-14,28,24,20,25,17,12,89,76,61,30.39,29.94,18,7,22,0.02
2013-1-15,28,22,12,23,16,8,87,78,63,30.41,30.11,20,8,23,0.00
2013-1-16,30,28,28,28,24,22,94,82,75,30.10,29.60,19,10,26,0.00
2013-1-17,12,6,-7,8,-2,-100,88,75,59,30.37,30.25,20,-11,25,0.00
2013-1-18,15,3,-7,12,0,-11,89,86,82,30.40,30.20,8,1,14,0.00
2013-1-21,9,2,-4,5,-4,-100,89,77,74,30.12,29.95,7,-14,10,0.00
2013-1-22,-3,-11,-20,-10,-18,-25,78,71,55,30.34,30.11,6,1,9,0.00
2013-1-23,6,-4,-21,1,-10,-26,83,77,70,30.39,30.18,5,1,11,0.00
2013-1-24,5,-6,-17,-4,-13,-22,89,73,58,30.75,30.40,17,2,17,0.00
2013-1-25,18,8,-8,14,5,-13,87,84,80,30.59,30.13,7,1,10,0.00
2013-1-26,22,11,-2,13,6,-6,89,81,66,30.53,30.17,5,1,9,0.12
2013-1-27,29,20,11,26,16,6,89,84,78,30.54,30.24,7,2,11,0.12
2013-1-28,31,-46,-90,30,-55,-100,95,33,91,30.23,29.94,8,-19,17,0.03
2013-1-29,-25,-79,-90,-100,-100,-100,0,0,100,30.22,29.75,9,3,18,0.41
2013-1-30,20,-24,-46,17,-84,-100,92,13,83,29.74,29.23,10,4,21,0.24
2013-1-31,11,6,2,6,1,-3,92,80,74,29.91,29.27,13,6,15,0.24
2013-2-1,12,4,-6,8,-2,-11,84,78,68,30.20,29.92,6,1,9,0.00
2013-2-2,15,4,-10,4,-2,-15,86,76,53,30.14,30.09,9,2,13,0.00
2013-2-3,17,4,-11,15,-1,-15,92,81,65,30.11,29.85,10,2,19,0.00
2013-2-4,7,-5,-20,-1,-10,-25,84,77,64,30.11,30.01,5,1,7,0.00
2013-2-5,19,-18,-90,17,-23,-100,92,67,79,30.08,29.81,7,2,12,0.00
2013-2-6,10,2,-17,7,-2,-22,87,80,70,30.42,30.09,7,1,12,0.00
2013-2-7,11,10,9,8,7,6,87,86,85,30.43,30.40,9,3,12,0.00
2013-2-26,33,31,30,25,25,24,81,77,70,30.14,29.96,13,6,19,0.00
2013-2-27,37,33,30,31,28,25,86,82,77,29.95,29.78,14,7,21,0.04
2013-2-28,34,29,19,30,21,11,82,72,56,30.17,29.78,14,6,24,0.00
2013-3-1,30,20,14,14,10,7,78,66,49,30.30,30.17,16,4,17,0.00
2013-3-2,30,18,12,15,9,5,77,68,48,30.30,30.16,11,4,14,0.00
2013-3-3,24,13,0,13,6,-5,92,75,58,30.20,30.11,11,2,13,0.00
2013-3-4,28,13,-6,13,4,-11,86,70,46,30.26,30.17,11,2,17,0.00
2013-3-5,33,21,6,25,14,2,87,74,59,30.29,30.16,10,2,15,0.00
2013-3-6,37,33,29,30,26,23,92,78,68,30.30,30.21,9,2,13,0.00
2013-3-7,37,30,24,29,25,21,87,82,71,30.48,30.28,9,4,12,0.05
2013-3-8,38,30,18,31,25,15,87,83,75,30.57,30.46,7,1,10,0.00
2013-3-9,37,32,27,32,28,24,92,86,75,30.46,30.13,8,2,16,0.00
2013-3-10,37,35,32,34,31,28,89,88,87,30.13,29.89,8,1,10,0.99
2013-3-11,40,37,35,37,34,32,89,88,88,29.98,29.44,15,4,17,0.55
2013-3-12,36,27,19,33,24,17,89,88,87,29.90,29.43,6,0,10,0.02
2013-3-13,25,18,14,17,14,10,89,81,57,30.20,29.89,18,3,20,0.00
2013-3-14,14,5,-4,3,-1,-8,86,76,56,30.30,30.24,5,0,7,0.00
2013-3-16,21,13,7,15,2,-3,85,61,45,30.13,30.04,11,4,18,0.00
2013-3-17,20,12,0,15,3,-4,87,69,48,30.45,30.07,8,2,12,0.01
2013-3-18,34,21,-2,24,11,-6,87,69,45,30.39,29.64,15,5,26,0.00
2013-3-19,30,28,24,26,24,21,88,87,83,29.78,29.49,14,7,23,0.05
2013-3-20,28,23,14,24,19,11,96,86,73,29.84,29.78,12,5,17,0.02
2013-3-21,31,26,21,23,18,15,88,75,54,29.92,29.82,21,6,21,0.03
2013-3-22,36,26,15,25,19,11,86,75,57,30.08,29.91,18,5,20,0.02
2013-3-23,39,30,16,27,22,13,87,75,59,30.17,30.08,18,4,21,0.00
2013-3-24,38,30,23,25,22,18,83,72,46,30.16,29.95,8,2,13,0.00
2013-3-25,42,38,31,29,23,-100,77,59,47,30.02,29.91,12,-13,15,0.00
2013-3-26,45,38,32,29,25,16,76,61,35,30.11,30.03,14,6,18,0.00
2013-3-27,44,36,30,30,27,24,82,69,50,30.22,30.10,17,4,20,0.00
2013-3-28,43,36,31,30,27,20,86,72,44,30.28,30.22,13,4,18,0.00
2013-3-29,45,34,22,29,23,19,86,68,40,30.32,30.25,9,3,16,0.00
2013-3-30,43,32,19,32,24,15,87,76,49,30.27,29.89,6,1,11,0.06
2013-3-31,38,35,26,34,31,21,88,86,75,29.89,29.59,16,4,27,0.16
2013-4-1,27,22,17,21,13,9,85,70,51,30.09,29.66,24,10,30,0.00
2013-4-2,29,21,12,16,12,9,87,72,48,30.27,30.08,22,6,33,0.00
2013-4-3,35,25,13,22,13,6,87,62,33,30.44,30.27,14,5,22,0.00
2013-4-4,38,31,20,33,26,17,87,82,71,30.33,29.96,11,4,17,0.06
2013-4-5,34,29,23,26,18,12,86,64,48,30.29,30.02,18,7,25,0.00
2013-4-6,33,27,19,30,22,15,88,82,64,30.31,29.81,14,3,18,0.02
2013-4-7,41,37,33,36,32,30,88,83,73,30.10,29.49,11,5,18,0.87
2013-4-8,40,35,32,33,31,29,92,83,73,30.13,29.96,9,2,14,0.07
2013-4-9,42,37,33,37,33,30,88,86,81,30.18,30.06,7,2,8,0.01
2013-4-10,46,38,32,32,25,16,87,63,31,30.23,30.12,10,3,13,0.01
2013-4-11,37,32,26,23,14,10,79,48,40,30.29,30.07,15,6,21,0.00
2013-4-12,32,29,25,28,25,22,87,86,83,30.08,29.75,18,6,24,0.02
2013-4-13,35,31,26,31,27,23,88,87,85,29.93,29.76,7,2,13,0.08
2013-4-14,39,33,27,31,27,24,88,80,59,30.18,29.93,9,3,12,0.08
2013-4-15,42,38,34,38,32,27,87,82,67,30.15,29.90,17,5,23,0.55
2013-4-16,45,37,33,32,23,-100,86,69,59,30.36,0.00,22,-50,28,0.00
2013-4-17,44,36,28,32,29,25,87,75,54,30.53,30.25,8,2,12,0.00
2013-4-18,43,41,38,40,35,23,87,82,48,30.26,29.58,15,4,19,0.57
2013-4-19,42,37,27,39,33,22,89,85,74,29.56,29.26,24,8,32,0.46
2013-4-20,32,26,18,22,15,8,84,65,50,30.52,29.55,19,10,29,0.00
2013-4-21,38,29,16,29,22,13,88,76,42,30.73,30.52,9,2,15,0.00
2013-4-22,44,38,33,35,32,29,85,80,68,30.53,30.35,8,3,15,0.00
2013-4-23,44,38,33,38,32,-100,87,84,73,30.03,0.00,12,-15,15,0.58
2013-4-24,44,37,32,31,29,23,87,74,53,30.05,29.89,14,5,17,0.01
2013-4-25,38,33,25,34,29,22,87,86,77,30.32,30.02,11,3,18,0.09
2013-4-26,46,37,24,37,31,21,88,80,64,30.43,30.28,8,2,14,0.06
2013-4-27,57,45,31,47,39,28,88,80,67,30.31,30.17,8,1,11,0.06
2013-4-28,60,48,33,44,38,30,88,71,50,30.17,29.94,10,2,17,0.00
2013-4-29,54,48,45,49,45,42,88,86,83,29.96,29.92,8,2,12,0.10
2013-4-30,57,52,47,52,43,-100,89,82,82,30.02,0.00,12,-12,19,0.01
2013-5-1,66,58,49,55,50,43,86,77,64,30.30,30.01,11,3,14,0.01
2013-5-2,66,54,42,53,45,38,86,74,44,30.36,30.24,9,2,15,0.00
2013-5-3,69,59,46,44,42,40,84,56,36,30.26,30.20,11,3,15,0.00
2013-5-4,66,57,43,49,43,38,84,62,49,30.23,30.20,12,2,15,0.00
2013-5-5,68,53,38,48,40,34,86,66,34,30.23,30.15,8,2,11,0.00
2013-5-6,69,53,37,46,40,33,86,65,37,30.19,30.07,6,1,10,0.00
2013-5-7,69,53,36,48,38,32,87,61,27,30.18,30.10,6,1,10,0.00
2013-5-8,71,55,35,43,37,31,85,56,25,30.13,30.02,7,1,9,0.00
2013-5-9,68,54,42,47,41,34,85,63,39,30.13,29.98,13,4,15,0.00
2013-5-10,46,40,35,37,33,30,86,78,60,30.16,29.99,12,5,18,0.02
2013-5-11,50,40,31,38,33,27,87,78,52,29.99,29.68,15,4,19,0.29
2013-5-12,37,34,31,33,30,28,88,87,84,30.04,29.61,21,11,30,0.06
2013-5-13,50,40,29,32,26,19,87,60,30,30.15,30.04,16,5,24,0.06
2013-5-14,51,44,38,41,37,31,85,75,64,30.11,29.80,12,4,16,0.01
2013-5-15,67,55,45,47,41,36,83,62,32,29.80,29.56,29,10,35,0.00
2013-5-16,60,52,43,44,40,37,80,63,48,30.13,29.75,15,5,22,0.00
2013-5-17,61,50,35,43,38,32,86,66,42,30.30,30.14,10,2,13,0.00
2013-5-18,65,53,36,47,40,33,86,63,40,30.31,30.14,9,2,15,0.00
2013-5-19,68,59,54,49,47,43,82,66,49,30.14,29.95,10,2,14,0.01
2013-5-20,69,61,56,58,54,50,85,79,67,30.01,29.79,10,4,31,0.78
2013-5-21,59,55,50,55,51,46,88,86,85,29.89,29.76,14,4,17,1.50
2013-5-22,59,55,53,54,51,49,87,86,83,29.80,29.75,10,3,16,0.20
2013-5-23,54,46,38,49,33,-100,87,63,45,30.30,29.80,14,-7,21,0.50
2013-5-24,53,43,36,39,31,26,77,63,50,30.44,30.30,13,5,20,0.00
2013-5-25,60,48,33,42,36,29,87,66,40,30.51,30.36,11,3,16,0.00
2013-5-26,62,50,35,41,36,31,86,62,37,30.45,30.28,12,3,16,0.00
2013-5-27,62,50,36,45,38,32,86,65,38,30.31,30.13,7,2,13,0.00
2013-5-28,60,52,40,51,43,36,87,73,56,30.12,29.85,11,3,14,0.33
2013-5-29,64,56,49,58,52,46,89,86,80,30.00,29.80,10,3,14,0.41
2013-5-30,75,61,51,66,55,-100,87,81,70,30.04,29.92,9,-8,13,0.00
2013-5-31,72,65,60,65,60,56,87,82,73,29.94,29.81,10,2,12,0.00
2013-6-1,68,60,56,63,56,52,87,86,84,29.82,29.69,10,1,20,0.26
2013-6-2,57,51,42,53,46,37,88,85,78,30.01,29.60,18,7,22,0.18
2013-6-3,55,46,38,39,36,33,88,70,49,30.15,30.01,23,9,30,0.00
2013-6-4,64,51,35,45,39,31,88,67,39,30.27,30.15,11,3,16,0.00
2013-6-5,58,52,47,49,44,41,86,73,61,30.31,30.20,7,1,10,0.00
2013-6-6,64,57,50,48,43,39,86,61,40,30.20,30.03,9,2,16,0.00
2013-6-7,67,54,42,51,45,38,87,74,49,30.05,29.95,8,2,11,0.00
2013-6-8,65,56,42,52,47,38,88,73,45,30.12,29.96,6,1,9,0.00
2013-6-9,71,57,41,53,46,38,88,70,35,30.20,30.11,6,1,11,0.00
2013-6-10,68,62,55,59,54,48,86,76,63,30.12,29.88,10,3,14,0.02
2013-6-11,65,62,59,61,58,55,87,86,85,29.92,29.85,6,1,8,0.02
2013-6-12,73,62,56,61,56,51,89,79,48,29.95,29.80,9,3,13,0.00
2013-6-13,74,63,51,63,53,47,87,73,50,30.04,29.76,12,3,17,0.11
2013-6-14,68,59,47,49,43,37,70,57,39,30.18,30.05,10,4,15,0.00
2013-6-15,65,57,44,51,45,31,86,66,28,30.09,29.90,6,1,7,0.00
2013-6-16,70,60,52,63,54,49,88,81,62,29.90,29.75,12,3,17,0.28
2013-6-17,60,56,52,53,50,47,89,82,71,30.07,29.84,10,2,12,0.00
2013-6-18,66,57,44,49,43,37,88,64,37,30.18,30.07,12,3,16,0.00
2013-6-19,68,57,41,55,47,38,88,72,51,30.25,30.15,11,2,13,0.00
2013-6-20,65,58,46,58,52,42,87,79,65,30.23,30.16,8,1,12,0.02
2013-6-21,67,61,56,59,56,52,87,84,75,30.23,30.02,12,2,16,1.02
2013-6-22,70,63,59,65,59,56,88,87,82,30.12,29.96,9,1,10,0.02
2013-6-23,69,63,58,64,59,54,89,87,83,30.08,29.92,6,1,9,0.02
2013-6-24,80,69,58,70,63,55,89,83,69,29.98,29.86,7,2,12,0.00
2013-6-25,80,69,64,70,63,60,87,82,62,29.89,29.80,8,2,14,0.23
2013-6-26,80,72,64,67,56,-100,85,67,60,29.83,29.78,7,-21,8,0.00
2013-6-27,72,66,62,66,62,58,87,86,77,29.82,29.72,7,1,13,0.30
2013-6-28,70,64,61,65,61,58,88,87,85,29.71,29.64,5,0,11,0.12
2013-6-29,79,66,54,63,56,51,88,71,41,29.82,29.67,11,2,14,0.12
2013-6-30,79,69,56,53,45,33,79,46,22,30.07,29.82,9,2,14,0.00
2013-7-1,73,63,52,54,46,37,84,57,28,30.24,30.07,11,3,16,0.00
2013-7-2,72,62,50,55,48,42,84,63,41,30.24,30.14,6,2,10,0.00
2013-7-3,74,64,54,59,53,48,86,70,41,30.18,30.09,6,1,10,0.00
2013-7-4,73,67,59,65,61,55,87,83,74,30.11,30.05,11,3,16,0.00
2013-7-5,78,69,56,68,62,53,88,80,64,30.10,30.02,7,2,14,0.00
2013-7-6,84,70,57,69,62,53,88,78,51,30.07,29.99,8,2,15,0.00
2013-7-7,77,69,58,71,64,55,88,84,75,30.02,29.94,7,1,10,0.11
2013-7-8,70,66,61,65,61,57,87,86,85,30.05,30.00,5,2,9,0.11
2013-7-9,74,70,66,69,66,62,88,86,83,30.05,29.79,7,2,10,0.01
2013-7-10,70,66,62,66,62,58,88,87,84,29.79,29.62,16,6,23,0.18
2013-7-11,72,67,58,60,57,53,87,72,62,30.14,30.11,12,4,14,0.00
2013-7-12,75,62,48,62,55,45,89,78,54,30.24,30.13,6,1,9,0.00
2013-7-13,79,66,51,66,59,48,89,79,54,30.26,30.19,7,2,12,0.00
2013-7-14,80,70,56,68,61,53,88,76,55,30.31,30.25,8,2,11,0.00
2013-7-15,85,71,58,70,64,55,88,78,54,30.34,30.26,7,2,11,0.00
2013-7-16,87,75,63,73,68,59,88,79,58,30.32,30.18,7,2,14,0.00
2013-7-17,86,78,73,76,72,69,87,80,66,30.21,30.10,14,4,16,0.00
2013-7-18,78,72,68,72,68,64,88,86,79,30.11,29.78,10,2,17,1.42
2013-7-19,80,65,63,73,53,-100,88,77,59,29.78,29.61,16,-66,21,0.01
2013-7-20,70,62,54,59,49,-100,89,71,47,30.02,29.74,12,-19,23,0.01
2013-7-21,68,58,48,55,47,-100,89,72,50,30.13,30.02,6,-19,11,0.00
2013-7-22,74,65,52,67,60,49,88,82,72,30.03,29.66,13,2,14,0.00
2013-7-23,69,62,50,65,55,46,87,79,60,29.96,29.61,17,7,24,0.19
2013-7-24,70,55,43,54,44,-100,89,72,52,30.09,29.97,13,-30,15,0.00
2013-7-25,70,56,47,60,43,-100,89,75,66,30.13,30.07,11,-41,15,0.00
2013-7-26,67,61,60,63,54,-100,88,84,81,30.07,29.89,8,-30,24,1.28
2013-7-27,68,60,56,62,51,-100,89,82,76,29.89,29.76,9,-29,13,0.02
2013-7-28,65,55,54,57,46,-100,89,80,70,29.93,29.72,9,-33,14,0.03
2013-7-29,69,56,54,60,46,-100,88,81,72,30.19,29.93,10,-48,16,0.01
2013-7-30,70,58,49,62,48,-100,89,78,61,30.25,30.16,7,-40,12,0.00
2013-7-31,72,63,57,63,58,53,89,85,70,30.16,29.91,9,1,17,0.67
2013-8-1,72,59,55,61,47,-100,92,76,58,29.93,29.86,14,-51,19,0.01
2013-8-2,67,57,50,62,51,-100,89,85,77,29.91,29.82,8,-21,12,0.68
2013-8-3,66,56,50,57,48,-100,90,80,67,30.08,29.91,13,-28,19,0.00
2013-8-4,71,59,46,55,50,43,89,76,52,30.20,30.08,13,4,21,0.00
2013-8-5,66,52,43,59,48,40,89,86,72,30.14,30.06,5,1,8,0.00
2013-8-7,73,64,60,65,55,-100,87,79,69,29.95,29.79,14,-19,20,0.00
2013-8-8,70,61,51,58,54,48,89,78,50,30.07,29.96,9,3,12,0.00
2013-8-9,68,60,52,62,54,48,89,83,60,30.05,29.88,26,4,26,0.05
2013-8-10,71,58,43,58,50,40,90,77,52,30.15,30.06,10,3,17,0.05
2013-8-11,70,58,46,62,53,43,89,83,64,30.14,30.04,8,1,13,0.00
2013-8-12,64,57,49,61,54,46,92,88,86,30.05,29.88,12,2,15,0.36
2013-8-13,59,54,49,51,48,45,87,78,65,30.11,29.93,12,4,22,0.36
2013-8-14,68,57,45,53,48,42,89,74,50,30.17,30.10,16,4,20,0.00
2013-8-15,74,59,45,57,51,42,90,75,48,30.13,30.05,11,3,16,0.00
2013-8-16,72,59,46,60,52,43,89,78,51,30.24,30.13,6,1,10,0.00
2013-8-17,73,61,48,63,54,45,89,80,57,30.31,30.22,7,1,10,0.00
2013-8-18,78,63,49,62,55,46,89,77,50,30.24,30.11,7,2,10,0.00
2013-8-19,75,63,51,64,57,48,89,81,63,30.12,29.99,8,2,15,0.00
2013-8-20,80,68,55,70,61,52,89,81,63,30.06,29.99,11,2,15,0.00
2013-8-21,82,71,60,71,65,57,88,80,65,30.05,29.89,10,3,14,0.00
2013-8-22,79,68,59,67,55,-100,88,68,33,30.13,29.91,9,-12,16,0.00
2013-8-23,70,61,50,61,54,47,89,79,59,30.27,30.13,8,2,9,0.00
2013-8-24,72,61,48,64,56,45,90,83,71,30.36,30.27,7,2,12,0.00
2013-8-25,71,68,67,67,65,63,88,88,87,30.04,30.01,7,1,8,0.38
2013-8-26,82,72,66,72,67,63,89,84,69,30.06,29.92,8,3,22,2.00
2013-8-27,68,66,66,65,63,63,89,88,87,29.96,29.93,4,1,8,0.00